Time;durP1;ratioP1;P1;durP2;ratioP2;P2;SDS_P1;SDS_P2;PMS_P1;PMS_P2;Temp;Humidity;BMP_temperature;BMP_pressure;BME280_temperature;BME280_humidity;BME280_pressure;Samples;Min_cycle;Max_cycle;Signal;HPM_P1;HPM_P2
2023/01/02 00:01:41;;;;;;;1.08;0.90;;;19.20;56.10;;;;;;6345462;28;20164;-68
2023/01/02 00:04:42;;;;;;;2.00;0.85;;;19.20;56.10;;;;;;6345005;28;20055;-68
2023/01/02 00:07:43;;;;;;;1.65;1.02;;;19.20;56.10;;;;;;6345190;28;20026;-68
2023/01/02 00:10:44;;;;;;;1.10;0.90;;;19.20;56.10;;;;;;6345097;28;20020;-69
2023/01/02 00:13:44;;;;;;;1.27;0.98;;;19.20;56.20;;;;;;6343889;28;20016;-68
2023/01/02 00:16:45;;;;;;;1.65;0.90;;;19.20;56.10;;;;;;6345035;28;20024;-68
2023/01/02 00:19:46;;;;;;;1.27;0.90;;;19.20;56.10;;;;;;6343511;28;20028;-68
2023/01/02 00:22:46;;;;;;;0.90;0.80;;;19.20;56.20;;;;;;6344526;28;20038;-69
2023/01/02 00:25:48;;;;;;;0.95;0.70;;;19.20;56.20;;;;;;6344841;28;20472;-68
2023/01/02 00:28:48;;;;;;;1.10;1.00;;;19.20;56.10;;;;;;6344993;28;20073;-69
2023/01/02 00:31:49;;;;;;;1.40;1.20;;;19.20;56.20;;;;;;6344780;28;20407;-69
2023/01/02 00:34:50;;;;;;;1.42;0.93;;;19.20;56.10;;;;;;6343020;28;20023;-68
2023/01/02 00:37:51;;;;;;;1.00;0.80;;;19.20;56.10;;;;;;6344567;28;20027;-68
2023/01/02 00:40:51;;;;;;;1.92;1.00;;;19.20;56.20;;;;;;6343223;28;20452;-68
2023/01/02 00:43:52;;;;;;;1.30;0.88;;;19.20;56.10;;;;;;6344272;28;20080;-68
2023/01/02 00:46:53;;;;;;;1.23;0.82;;;19.20;56.20;;;;;;6344750;28;20519;-69
2023/01/02 00:49:53;;;;;;;1.63;1.08;;;19.20;56.20;;;;;;6344210;28;20027;-69
2023/01/02 00:52:54;;;;;;;1.05;0.82;;;19.20;56.20;;;;;;6344126;28;20687;-69
2023/01/02 00:55:55;;;;;;;1.27;0.95;;;19.20;56.20;;;;;;6343529;28;20575;-68
2023/01/02 00:58:55;;;;;;;1.25;0.77;;;19.20;56.10;;;;;;6344054;28;20421;-69
2023/01/02 01:01:56;;;;;;;1.98;1.30;;;19.20;56.10;;;;;;6343401;28;20468;-68
2023/01/02 01:04:57;;;;;;;1.42;0.90;;;19.20;56.10;;;;;;6343697;28;20118;-68
2023/01/02 01:07:57;;;;;;;1.63;0.82;;;19.20;56.20;;;;;;6344132;28;20019;-68
2023/01/02 01:11:03;;;;;;;1.85;1.08;;;19.20;56.20;;;;;;6343912;28;20031;-69
2023/01/02 01:14:04;;;;;;;1.42;1.00;;;19.20;56.10;;;;;;6343497;28;20022;-69
2023/01/02 01:17:05;;;;;;;1.00;0.80;;;19.20;56.10;;;;;;6342273;28;20480;-68
2023/01/02 01:20:06;;;;;;;1.80;1.00;;;19.20;56.10;;;;;;6343814;28;20085;-68
2023/01/02 01:23:07;;;;;;;0.68;0.68;;;19.20;56.10;;;;;;6343665;28;20031;-69
2023/01/02 01:26:10;;;;;;;1.00;0.90;;;19.20;56.20;;;;;;6343407;28;20098;-69
2023/01/02 01:29:11;;;;;;;1.48;1.08;;;19.20;56.20;;;;;;6343637;28;20028;-68
2023/01/02 01:32:11;;;;;;;1.25;0.90;;;19.20;56.10;;;;;;6342015;28;20047;-69
2023/01/02 01:35:12;;;;;;;1.13;0.90;;;19.20;56.20;;;;;;6342252;28;20381;-69
2023/01/02 01:38:13;;;;;;;1.33;0.68;;;19.20;56.10;;;;;;6342037;28;20645;-68
2023/01/02 01:41:17;;;;;;;1.40;1.00;;;19.20;56.10;;;;;;6343687;28;20045;-68
2023/01/02 01:44:56;;;;;;;1.55;0.95;;;19.20;56.10;;;;;;6343192;28;20023;-68
2023/01/02 01:47:59;;;;;;;1.88;1.05;;;19.20;56.10;;;;;;6341423;28;20066;-69
2023/01/02 01:51:01;;;;;;;2.20;0.82;;;19.20;56.20;;;;;;6343141;28;20028;-69
2023/01/02 01:54:09;;;;;;;2.60;0.90;;;19.20;56.20;;;;;;6341487;28;20114;-68
2023/01/02 01:57:32;;;;;;;0.77;0.77;;;19.20;56.10;;;;;;6343265;28;20074;-68
2023/01/02 02:00:33;;;;;;;0.93;0.80;;;19.20;56.20;;;;;;6347752;28;20035;-68
2023/01/02 02:03:35;;;;;;;1.00;0.80;;;19.20;56.20;;;;;;6348110;28;20664;-68
2023/01/02 02:06:37;;;;;;;1.00;0.80;;;19.20;56.10;;;;;;6346724;28;20023;-68
2023/01/02 02:09:46;;;;;;;1.27;0.73;;;19.20;56.20;;;;;;6348142;28;20027;-68
2023/01/02 02:12:48;;;;;;;1.00;0.70;;;19.20;56.20;;;;;;6347840;28;20066;-69
2023/01/02 02:16:04;;;;;;;1.20;0.90;;;19.20;56.20;;;;;;6347806;28;20024;-68
2023/01/02 02:19:30;;;;;;;1.27;0.90;;;19.20;56.20;;;;;;6347778;28;20106;-68
2023/01/02 02:22:59;;;;;;;0.85;0.73;;;19.20;56.20;;;;;;6347697;28;20020;-69
2023/01/02 02:26:00;;;;;;;1.35;0.80;;;19.20;56.20;;;;;;6347240;28;20019;-68
2023/01/02 02:29:04;;;;;;;1.15;0.70;;;19.20;56.20;;;;;;6346586;28;20551;-69
2023/01/02 02:32:54;;;;;;;1.08;0.80;;;19.20;56.20;;;;;;6347472;28;20079;-68
2023/01/02 02:36:15;;;;;;;1.33;0.77;;;19.20;56.10;;;;;;6344751;28;20138;-68
2023/01/02 02:39:46;;;;;;;1.33;0.70;;;19.20;56.10;;;;;;6346992;28;20023;-69
2023/01/02 02:42:53;;;;;;;1.75;1.05;;;19.20;56.10;;;;;;6346879;27;20077;-69
2023/01/02 02:45:56;;;;;;;1.70;0.85;;;19.20;56.20;;;;;;6347215;28;20494;-68
2023/01/02 02:49:09;;;;;;;1.55;1.00;;;19.20;56.20;;;;;;6347059;28;20480;-68
2023/01/02 02:52:30;;;;;;;0.60;0.60;;;19.20;56.20;;;;;;6347171;28;20028;-69
2023/01/02 02:55:43;;;;;;;1.88;0.70;;;19.20;56.20;;;;;;6346764;28;20040;-68
2023/01/02 02:58:44;;;;;;;0.88;0.70;;;19.20;56.10;;;;;;6346407;28;20016;-68
2023/01/02 03:01:45;;;;;;;0.88;0.70;;;19.20;56.20;;;;;;6346896;28;20384;-68
2023/01/02 03:04:54;;;;;;;1.10;0.77;;;19.20;56.10;;;;;;6345153;28;20031;-68
2023/01/02 03:08:12;;;;;;;1.00;0.85;;;19.20;56.20;;;;;;6345288;28;20031;-69
2023/01/02 03:11:14;;;;;;;0.77;0.70;;;19.20;56.10;;;;;;6343745;28;20026;-69
2023/01/02 03:14:30;;;;;;;0.90;0.60;;;19.20;56.20;;;;;;6346356;28;20072;-68
2023/01/02 03:17:58;;;;;;;1.20;0.80;;;19.20;56.20;;;;;;6344964;28;20024;-68
2023/01/02 03:21:13;;;;;;;1.20;0.90;;;19.20;56.10;;;;;;6334747;28;20030;-68
2023/01/02 03:24:17;;;;;;;1.05;0.60;;;19.20;56.20;;;;;;6346417;28;20028;-68
2023/01/02 03:27:22;;;;;;;1.05;0.88;;;19.20;56.20;;;;;;6346162;28;20019;-68
2023/01/02 03:30:23;;;;;;;1.80;0.80;;;19.20;56.10;;;;;;6344566;28;20072;-69
2023/01/02 03:33:27;;;;;;;1.40;0.75;;;19.20;56.10;;;;;;6346105;28;20016;-68
2023/01/02 03:36:31;;;;;;;1.03;0.80;;;19.20;56.10;;;;;;6346176;28;20030;-68
2023/01/02 03:39:35;;;;;;;0.60;0.60;;;19.20;56.20;;;;;;6345767;28;20320;-68
2023/01/02 03:43:06;;;;;;;1.35;0.60;;;19.20;56.10;;;;;;6345813;28;20093;-68
2023/01/02 03:46:46;;;;;;;1.35;0.70;;;19.20;56.10;;;;;;6320489;28;20496;-68
2023/01/02 03:49:50;;;;;;;0.77;0.70;;;19.20;56.10;;;;;;6320319;28;20125;-68
2023/01/02 03:52:52;;;;;;;1.10;0.70;;;19.20;56.10;;;;;;6320127;28;20027;-69
2023/01/02 03:56:36;;;;;;;0.80;0.55;;;19.20;56.10;;;;;;6320090;28;20048;-68
2023/01/02 04:00:05;;;;;;;1.70;0.70;;;19.20;56.10;;;;;;6331876;28;20027;-69
2023/01/02 04:03:14;;;;;;;0.90;0.80;;;19.20;56.20;;;;;;6345367;28;20020;-69
2023/01/02 04:06:18;;;;;;;1.05;0.68;;;19.20;56.10;;;;;;6344265;28;20031;-68
2023/01/02 04:09:27;;;;;;;0.67;0.60;;;19.20;56.10;;;;;;6345367;28;20047;-69
2023/01/02 04:12:32;;;;;;;2.40;0.80;;;19.20;56.10;;;;;;6345270;28;20020;-69
2023/01/02 04:15:35;;;;;;;1.42;0.80;;;19.20;56.10;;;;;;6345092;28;20046;-69
2023/01/02 04:18:41;;;;;;;0.85;0.68;;;19.20;56.10;;;;;;6345023;28;20028;-69
2023/01/02 04:21:46;;;;;;;0.60;0.60;;;19.20;56.10;;;;;;6344675;28;20076;-69
2023/01/02 04:24:54;;;;;;;0.93;0.50;;;19.20;56.10;;;;;;6343428;28;20492;-68
2023/01/02 04:28:13;;;;;;;0.50;0.50;;;19.20;56.10;;;;;;6344762;28;20088;-69
2023/01/02 04:31:37;;;;;;;1.05;0.70;;;19.20;56.20;;;;;;6343340;28;20047;-68
2023/01/02 04:34:41;;;;;;;1.27;0.90;;;19.20;56.10;;;;;;6335071;28;20084;-69
2023/01/02 04:37:43;;;;;;;1.20;0.65;;;19.20;56.10;;;;;;6344696;28;20500;-68
2023/01/02 04:40:44;;;;;;;0.95;0.68;;;19.20;56.10;;;;;;6344321;28;20011;-68
2023/01/02 04:43:44;;;;;;;1.20;0.77;;;19.20;56.10;;;;;;6344357;28;20659;-68
2023/01/02 04:46:45;;;;;;;0.93;0.70;;;19.20;56.10;;;;;;6343040;28;20064;-69
2023/01/02 04:49:46;;;;;;;1.35;0.85;;;19.20;56.00;;;;;;6342606;28;20059;-69
2023/01/02 04:52:46;;;;;;;0.95;0.57;;;19.20;56.10;;;;;;6342657;28;20134;-69
2023/01/02 04:55:47;;;;;;;1.23;0.70;;;19.20;56.10;;;;;;6343850;28;20052;-68
2023/01/02 04:58:48;;;;;;;0.93;0.60;;;19.20;56.10;;;;;;6344095;28;20104;-69
2023/01/02 05:01:50;;;;;;;0.93;0.70;;;19.20;56.80;;;;;;6343831;28;20048;-68
2023/01/02 05:04:50;;;;;;;1.48;0.60;;;19.20;56.10;;;;;;6343768;28;20023;-69
2023/01/02 05:07:51;;;;;;;0.77;0.70;;;19.20;56.10;;;;;;6343886;28;20019;-68
2023/01/02 05:10:52;;;;;;;1.02;0.68;;;19.20;56.10;;;;;;6343572;28;20027;-69
2023/01/02 05:13:52;;;;;;;0.68;0.68;;;19.20;56.10;;;;;;6343699;28;20019;-68
2023/01/02 05:16:53;;;;;;;1.42;0.80;;;19.20;56.10;;;;;;6342301;28;20616;-69
2023/01/02 05:19:54;;;;;;;1.50;0.70;;;19.20;56.10;;;;;;6343770;28;20123;-69
2023/01/02 05:26:35;;;;;;;1.67;0.70;;;19.20;56.00;;;;;;6314783;28;20027;-68
2023/01/02 05:29:35;;;;;;;1.40;0.98;;;19.20;56.10;;;;;;6314902;28;20028;-69
2023/01/02 05:32:36;;;;;;;0.80;0.73;;;19.20;56.00;;;;;;6339294;28;20416;-68
2023/01/02 05:35:37;;;;;;;1.10;0.80;;;19.20;56.10;;;;;;6343267;28;20027;-68
2023/01/02 05:38:38;;;;;;;0.70;0.60;;;19.20;56.10;;;;;;6343508;28;20035;-69
2023/01/02 05:41:40;;;;;;;1.23;0.75;;;19.20;56.00;;;;;;6343827;28;20031;-71
2023/01/02 05:44:41;;;;;;;1.23;0.70;;;19.20;56.00;;;;;;6343344;28;20034;-70
2023/01/02 05:47:41;;;;;;;0.60;0.57;;;19.20;56.00;;;;;;6341952;28;20476;-70
2023/01/02 05:50:42;;;;;;;1.02;0.70;;;19.20;56.10;;;;;;6342328;28;20114;-70
2023/01/02 05:53:43;;;;;;;1.40;0.93;;;19.20;56.00;;;;;;6342825;28;20519;-70
2023/01/02 05:56:43;;;;;;;0.80;0.55;;;19.20;56.00;;;;;;6343028;28;20496;-71
2023/01/02 05:59:44;;;;;;;0.60;0.60;;;19.20;56.00;;;;;;6342688;28;20102;-70
2023/01/02 06:02:45;;;;;;;0.98;0.73;;;19.20;56.00;;;;;;6341130;28;20110;-70
2023/01/02 06:05:45;;;;;;;0.80;0.70;;;19.20;56.00;;;;;;6343029;28;20373;-71
2023/01/02 06:08:46;;;;;;;0.82;0.70;;;19.20;56.00;;;;;;6341297;28;20153;-70
2023/01/02 06:11:46;;;;;;;0.82;0.70;;;19.20;56.10;;;;;;6342883;28;20392;-70
2023/01/02 06:14:47;;;;;;;0.93;0.70;;;19.20;56.00;;;;;;6343001;28;20030;-71
2023/01/02 06:17:48;;;;;;;0.90;0.60;;;19.20;56.00;;;;;;6342711;28;20031;-71
2023/01/02 06:20:48;;;;;;;0.98;0.73;;;19.20;56.00;;;;;;6342729;28;20035;-70
2023/01/02 06:23:55;;;;;;;1.05;0.70;;;19.20;56.00;;;;;;6343910;28;20024;-70
2023/01/02 06:26:56;;;;;;;1.13;0.70;;;19.20;56.00;;;;;;6342797;28;20027;-69
2023/01/02 06:29:57;;;;;;;1.88;0.65;;;19.20;56.00;;;;;;6341276;28;20019;-69
2023/01/02 06:32:57;;;;;;;1.10;0.80;;;19.20;56.00;;;;;;6342640;28;20066;-68
2023/01/02 06:35:59;;;;;;;0.60;0.60;;;19.20;56.00;;;;;;6342981;28;20020;-69
2023/01/02 06:38:59;;;;;;;1.15;0.77;;;19.20;56.10;;;;;;6341489;28;20023;-69
2023/01/02 06:42:00;;;;;;;1.98;0.75;;;19.20;56.00;;;;;;6341048;28;20027;-69
2023/01/02 06:45:01;;;;;;;0.70;0.70;;;19.20;56.00;;;;;;6344290;28;20099;-68
2023/01/02 06:48:02;;;;;;;1.58;0.70;;;19.20;56.00;;;;;;6347179;28;20461;-69
2023/01/02 06:51:07;;;;;;;1.10;0.60;;;19.20;56.00;;;;;;6346982;28;20102;-69
2023/01/02 06:54:07;;;;;;;;;;;19.20;56.00;;;;;;6347466;28;20065;-68
2023/01/02 06:57:09;;;;;;;1.08;0.68;;;19.20;56.00;;;;;;6343404;28;19965;-67
2023/01/02 07:00:10;;;;;;;0.63;0.60;;;19.20;56.00;;;;;;6320962;27;20044;-68
2023/01/02 07:03:11;;;;;;;1.08;0.80;;;19.20;56.00;;;;;;6339798;28;20071;-68
2023/01/02 07:06:15;;;;;;;1.75;1.00;;;19.20;56.00;;;;;;6324208;28;20374;-67
2023/01/02 07:09:15;;;;;;;0.55;0.52;;;19.20;56.00;;;;;;6323825;28;20519;-68
2023/01/02 07:12:16;;;;;;;2.78;0.90;;;19.20;56.00;;;;;;6324051;28;20024;-68
2023/01/02 07:15:17;;;;;;;1.13;0.77;;;19.20;56.00;;;;;;6322522;28;20035;-68
2023/01/02 07:18:17;;;;;;;1.05;0.70;;;19.20;56.00;;;;;;6324101;28;20065;-69
2023/01/02 07:21:18;;;;;;;1.00;0.70;;;19.20;56.00;;;;;;6343651;28;20476;-68
2023/01/02 07:24:19;;;;;;;2.00;1.13;;;19.20;56.10;;;;;;6346240;28;20476;-69
2023/01/02 07:27:20;;;;;;;0.95;0.88;;;19.20;56.10;;;;;;6323597;28;20031;-68
2023/01/02 07:30:20;;;;;;;0.70;0.57;;;19.20;56.10;;;;;;6323678;28;20031;-69
2023/01/02 07:33:21;;;;;;;1.10;0.73;;;19.20;56.10;;;;;;6323497;28;20095;-69
2023/01/02 07:36:23;;;;;;;1.10;0.80;;;19.20;56.10;;;;;;6342112;28;20050;-69
2023/01/02 07:39:23;;;;;;;0.70;0.68;;;19.20;56.00;;;;;;6347226;28;20019;-68
2023/01/02 07:42:24;;;;;;;0.63;0.60;;;19.20;56.10;;;;;;6323218;28;20039;-68
2023/01/02 07:45:25;;;;;;;1.45;0.90;;;19.20;56.10;;;;;;6322895;28;20091;-69
2023/01/02 07:48:28;;;;;;;1.20;0.90;;;19.20;56.10;;;;;;6321684;28;20031;-68
2023/01/02 07:51:30;;;;;;;0.68;0.68;;;19.20;56.10;;;;;;6322573;28;20480;-68
2023/01/02 07:54:31;;;;;;;1.20;0.80;;;19.20;56.10;;;;;;6322922;28;20489;-69
2023/01/02 07:57:32;;;;;;;1.08;0.70;;;19.20;56.10;;;;;;6321809;28;20083;-68
2023/01/02 08:00:32;;;;;;;1.20;0.70;;;19.20;56.10;;;;;;6302060;28;20496;-69
2023/01/02 08:03:33;;;;;;;0.90;0.70;;;19.20;56.10;;;;;;6308807;28;20020;-69
2023/01/02 08:06:34;;;;;;;0.98;0.70;;;19.20;56.10;;;;;;6321514;28;20104;-69
2023/01/02 08:09:35;;;;;;;1.23;0.80;;;19.20;56.10;;;;;;6321690;28;20105;-69
2023/01/02 08:12:35;;;;;;;0.77;0.70;;;19.20;56.10;;;;;;6341847;28;20020;-69
2023/01/02 08:15:36;;;;;;;1.17;0.70;;;19.20;56.10;;;;;;6311250;28;20020;-69
2023/01/02 08:18:37;;;;;;;0.75;0.70;;;19.20;56.10;;;;;;6320654;28;20409;-69
2023/01/02 08:21:37;;;;;;;0.90;0.70;;;19.20;56.00;;;;;;6321570;28;20020;-68
2023/01/02 08:24:38;;;;;;;0.70;0.50;;;19.20;56.10;;;;;;6322042;28;20035;-69
2023/01/02 08:27:39;;;;;;;1.05;0.75;;;19.20;56.10;;;;;;6321250;28;20024;-69
2023/01/02 08:30:40;;;;;;;0.98;0.70;;;19.20;56.10;;;;;;6325136;28;20485;-69
2023/01/02 08:33:41;;;;;;;4.35;0.88;;;19.20;56.10;;;;;;6347407;28;20028;-69
2023/01/02 08:36:42;;;;;;;1.58;0.77;;;19.30;56.00;;;;;;6336078;28;20024;-69
2023/01/02 08:39:43;;;;;;;3.10;0.70;;;19.30;55.80;;;;;;6321838;28;20027;-68
2023/01/02 08:42:44;;;;;;;0.80;0.68;;;19.30;55.60;;;;;;6321984;28;20052;-68
2023/01/02 08:45:45;;;;;;;192.20;5.05;;;19.40;55.50;;;;;;6321498;28;20020;-68
2023/01/02 08:48:45;;;;;;;10.93;0.85;;;19.50;55.60;;;;;;6321793;28;20388;-69
2023/01/02 08:51:46;;;;;;;13.02;0.90;;;19.50;55.70;;;;;;6321717;28;20089;-69
2023/01/02 08:54:47;;;;;;;8.57;0.90;;;19.40;55.60;;;;;;6315432;28;20020;-68
2023/01/02 08:57:48;;;;;;;6.75;0.95;;;19.40;55.70;;;;;;6318877;28;20059;-68
2023/01/02 09:00:51;;;;;;;5.97;1.05;;;19.40;55.80;;;;;;6319223;28;20504;-68
2023/01/02 09:03:52;;;;;;;8.88;1.00;;;19.30;55.80;;;;;;6330700;28;20028;-68
2023/01/02 09:06:53;;;;;;;3.00;0.82;;;19.40;55.90;;;;;;6320525;28;20019;-68
2023/01/02 09:09:53;;;;;;;6.32;0.90;;;19.30;55.90;;;;;;6320150;28;20032;-68
2023/01/02 09:12:54;;;;;;;6.28;0.80;;;19.40;55.90;;;;;;6323603;28;20024;-69
2023/01/02 09:15:55;;;;;;;2.00;0.60;;;19.30;55.90;;;;;;6311117;28;20477;-68
2023/01/02 09:18:58;;;;;;;3.50;1.10;;;19.30;55.90;;;;;;6308394;28;20070;-68
2023/01/02 09:22:00;;;;;;;1.23;0.70;;;19.30;55.90;;;;;;6333162;28;20024;-68
2023/01/02 09:25:00;;;;;;;4.28;1.05;;;19.30;55.90;;;;;;6339717;28;20058;-69
2023/01/02 09:28:01;;;;;;;2.47;0.80;;;19.30;55.90;;;;;;6342733;28;20024;-68
2023/01/02 09:31:07;;;;;;;3.25;1.58;;;19.30;55.90;;;;;;6303492;28;20436;-69
2023/01/02 09:34:08;;;;;;;1.42;0.70;;;19.30;55.90;;;;;;6319473;28;20709;-69
2023/01/02 09:37:09;;;;;;;1.52;0.80;;;19.30;55.90;;;;;;6320087;28;20027;-69
2023/01/02 09:40:11;;;;;;;2.20;0.70;;;19.30;55.90;;;;;;6310650;28;20021;-68
2023/01/02 09:43:15;;;;;;;2.50;1.00;;;19.30;55.90;;;;;;6325313;28;20049;-68
2023/01/02 09:46:37;;;;;;;1.67;0.73;;;19.30;55.90;;;;;;6344896;28;20055;-68
2023/01/02 09:49:42;;;;;;;3.38;0.75;;;19.30;55.80;;;;;;6295661;28;20032;-69
2023/01/02 09:52:46;;;;;;;4.10;1.00;;;19.30;55.90;;;;;;6304844;28;20107;-69
2023/01/02 09:55:56;;;;;;;1.15;0.80;;;19.40;55.80;;;;;;6342691;28;20047;-69
2023/01/02 09:59:08;;;;;;;1.85;0.90;;;19.40;55.60;;;;;;6324788;28;20259;-69
2023/01/02 10:02:27;;;;;;;2.22;0.98;;;19.40;55.60;;;;;;6323257;28;20027;-68
2023/01/02 10:05:37;;;;;;;2.50;0.80;;;19.50;55.40;;;;;;6320357;28;20027;-69
2023/01/02 10:08:49;;;;;;;2.42;0.80;;;19.50;55.50;;;;;;6315358;28;20027;-69
2023/01/02 10:12:16;;;;;;;1.67;0.68;;;19.50;55.40;;;;;;6322650;28;20046;-69
2023/01/02 10:15:24;;;;;;;1.90;0.60;;;19.60;55.40;;;;;;6311493;28;20071;-68
2023/01/02 10:18:27;;;;;;;2.95;0.93;;;19.50;55.30;;;;;;6308187;28;20471;-69
2023/01/02 10:21:33;;;;;;;2.47;0.70;;;19.60;55.30;;;;;;6300762;28;20028;-69
2023/01/02 10:25:05;;;;;;;1.83;0.68;;;19.60;55.30;;;;;;6320788;28;20020;-69
2023/01/02 10:28:29;;;;;;;1.33;0.88;;;19.60;55.20;;;;;;6323554;28;20081;-69
2023/01/02 10:31:44;;;;;;;1.10;0.75;;;19.60;55.20;;;;;;6321522;28;20020;-68
2023/01/02 10:34:54;;;;;;;1.35;0.80;;;19.60;55.10;;;;;;6324293;28;20028;-69
2023/01/02 10:37:56;;;;;;;2.05;0.75;;;19.60;55.20;;;;;;6323601;28;20073;-68
2023/01/02 10:40:56;;;;;;;3.55;0.70;;;19.60;55.10;;;;;;6324656;28;20028;-69
2023/01/02 10:44:06;;;;;;;1.42;0.70;;;19.60;55.20;;;;;;6324322;28;20058;-68
2023/01/02 10:47:13;;;;;;;4.07;0.70;;;19.60;55.30;;;;;;6323472;28;20488;-68
2023/01/02 10:50:18;;;;;;;2.47;0.80;;;19.60;55.30;;;;;;6338281;28;20031;-68
2023/01/02 10:53:30;;;;;;;;;;;19.60;55.30;;;;;;6314883;28;20020;-70
2023/01/02 10:56:33;;;;;;;1.48;0.80;;;19.60;55.30;;;;;;6316063;28;19989;-72
2023/01/02 10:59:34;;;;;;;1.35;0.70;;;19.60;55.40;;;;;;6328497;28;20031;-68
2023/01/02 11:02:41;;;;;;;0.98;0.82;;;19.60;55.30;;;;;;6325217;28;20019;-68
2023/01/02 11:05:48;;;;;;;2.03;0.77;;;19.50;55.30;;;;;;6315055;28;20039;-69
2023/01/02 11:09:03;;;;;;;1.17;0.85;;;19.50;55.30;;;;;;6331895;28;20023;-68
2023/01/02 11:12:09;;;;;;;1.63;0.90;;;19.50;55.30;;;;;;6342882;28;20055;-69
2023/01/02 11:15:12;;;;;;;0.90;0.70;;;19.50;55.30;;;;;;6325254;28;20046;-68
2023/01/02 11:18:21;;;;;;;2.20;0.75;;;19.50;55.30;;;;;;6341059;28;20024;-69
2023/01/02 11:21:28;;;;;;;1.58;0.98;;;19.50;55.30;;;;;;6334281;28;20054;-69
2023/01/02 11:24:31;;;;;;;1.75;0.90;;;19.50;55.40;;;;;;6332965;28;20016;-70
2023/01/02 11:27:40;;;;;;;2.33;1.00;;;19.50;55.40;;;;;;6325193;28;20044;-69
2023/01/02 11:30:47;;;;;;;1.00;0.80;;;19.50;55.40;;;;;;6321794;28;20103;-68
2023/01/02 11:33:47;;;;;;;1.85;0.85;;;19.50;55.50;;;;;;6323095;28;20046;-68
2023/01/02 11:37:21;;;;;;;1.83;0.98;;;19.50;55.50;;;;;;6348291;28;20027;-68
2023/01/02 11:40:27;;;;;;;1.05;0.70;;;19.50;55.50;;;;;;6299156;28;20036;-69
2023/01/02 11:43:48;;;;;;;2.25;1.02;;;19.50;55.60;;;;;;6345798;28;20081;-69
2023/01/02 11:46:51;;;;;;;1.60;0.70;;;19.50;55.50;;;;;;6322909;28;20020;-69
2023/01/02 11:49:52;;;;;;;6.90;0.93;;;19.60;55.60;;;;;;6322984;28;20103;-69
2023/01/02 11:53:03;;;;;;;2.47;0.88;;;19.60;55.50;;;;;;6329592;28;20576;-69
2023/01/02 11:56:18;;;;;;;4.25;0.80;;;19.60;55.50;;;;;;6337218;28;20039;-69
2023/01/02 11:59:31;;;;;;;2.10;0.80;;;19.60;55.40;;;;;;6327442;28;20031;-69
2023/01/02 12:02:39;;;;;;;2.83;1.00;;;19.60;55.40;;;;;;6326034;28;20496;-69
2023/01/02 12:06:01;;;;;;;1.65;0.70;;;19.60;55.40;;;;;;6322688;28;20012;-69
2023/01/02 12:09:10;;;;;;;1.38;0.80;;;19.60;55.30;;;;;;6320559;28;20043;-69
2023/01/02 12:12:22;;;;;;;1.73;0.70;;;19.60;55.30;;;;;;6345963;28;20034;-68
2023/01/02 12:15:47;;;;;;;3.95;0.93;;;19.60;55.30;;;;;;6338268;28;20028;-69
2023/01/02 12:18:57;;;;;;;3.22;1.00;;;19.70;55.40;;;;;;6322548;28;20056;-69
2023/01/02 12:22:25;;;;;;;1.52;0.80;;;19.60;55.30;;;;;;6321929;28;20024;-68
2023/01/02 12:25:37;;;;;;;2.22;0.88;;;19.70;55.40;;;;;;6321232;28;20123;-69
2023/01/02 12:28:57;;;;;;;5.50;0.90;;;19.60;55.60;;;;;;6323542;28;20031;-68
2023/01/02 12:32:16;;;;;;;1.95;0.80;;;19.60;55.50;;;;;;6334928;27;20047;-68
2023/01/02 12:35:35;;;;;;;1.60;0.85;;;19.60;55.50;;;;;;6331992;28;20397;-69
2023/01/02 12:39:08;;;;;;;2.35;0.95;;;19.60;55.40;;;;;;6321068;28;20024;-69
2023/01/02 12:42:20;;;;;;;3.15;0.90;;;19.60;55.30;;;;;;6328561;28;20023;-69
2023/01/02 12:45:27;;;;;;;1.73;0.70;;;19.70;55.40;;;;;;6337495;27;20023;-69
2023/01/02 12:49:10;;;;;;;1.05;0.60;;;19.70;55.40;;;;;;6335729;28;20440;-68
2023/01/02 12:52:25;;;;;;;1.58;0.80;;;19.70;55.40;;;;;;6332183;28;20028;-69
2023/01/02 12:55:26;;;;;;;1.25;0.82;;;19.70;55.30;;;;;;6341870;28;20097;-69
2023/01/02 12:58:35;;;;;;;1.90;1.00;;;19.70;55.20;;;;;;6315760;28;20656;-69
2023/01/02 13:01:46;;;;;;;0.75;0.47;;;19.70;55.40;;;;;;6307026;28;20029;-69
2023/01/02 13:05:16;;;;;;;1.60;0.65;;;19.60;55.40;;;;;;6320821;28;20020;-71
2023/01/02 13:08:25;;;;;;;1.55;0.85;;;19.60;55.50;;;;;;6319430;28;20027;-68
2023/01/02 13:11:59;;;;;;;3.05;0.95;;;19.60;55.50;;;;;;6319400;28;20107;-67
2023/01/02 13:15:28;;;;;;;3.75;0.77;;;19.60;55.60;;;;;;6319281;28;20473;-67
2023/01/02 13:18:48;;;;;;;1.63;0.98;;;19.60;55.60;;;;;;6321150;28;20499;-68
2023/01/02 13:22:24;;;;;;;1.67;0.82;;;19.60;55.60;;;;;;6321354;28;20023;-68
2023/01/02 13:25:29;;;;;;;1.48;0.82;;;19.60;55.60;;;;;;6303737;28;20031;-69
2023/01/02 13:28:31;;;;;;;2.28;1.00;;;19.60;55.60;;;;;;6333807;28;20101;-69
2023/01/02 13:31:38;;;;;;;2.38;0.63;;;19.60;55.70;;;;;;6323324;28;20024;-71
2023/01/02 13:35:01;;;;;;;1.20;0.80;;;19.60;55.80;;;;;;6332243;28;20055;-71
2023/01/02 13:38:06;;;;;;;4.78;0.93;;;19.60;55.60;;;;;;6330287;28;20020;-69
2023/01/02 13:41:07;;;;;;;1.83;1.00;;;19.70;55.60;;;;;;6318498;28;20020;-70
2023/01/02 13:44:07;;;;;;;3.05;0.80;;;19.70;55.30;;;;;;6342128;28;20115;-70
2023/01/02 13:47:18;;;;;;;1.63;0.65;;;19.70;55.60;;;;;;6336066;28;20020;-71
2023/01/02 13:50:28;;;;;;;2.25;0.90;;;19.70;55.50;;;;;;6319725;28;20051;-69
2023/01/02 13:53:45;;;;;;;1.70;0.93;;;19.70;55.50;;;;;;6324286;28;20073;-69
2023/01/02 13:57:16;;;;;;;1.75;0.60;;;19.70;55.50;;;;;;6326169;28;20051;-68
2023/01/02 14:00:16;;;;;;;1.50;0.82;;;19.70;55.50;;;;;;6336163;28;20032;-70
2023/01/02 14:03:20;;;;;;;1.20;0.70;;;19.70;55.60;;;;;;6323553;28;20392;-68
2023/01/02 14:06:36;;;;;;;4.75;1.00;;;19.70;55.50;;;;;;6323847;28;20028;-68
2023/01/02 14:10:08;;;;;;;2.33;0.68;;;19.70;55.50;;;;;;6299235;28;20027;-68
2023/01/02 14:13:16;;;;;;;4.25;0.90;;;19.70;55.50;;;;;;6322905;28;20318;-68
2023/01/02 14:16:25;;;;;;;1.40;0.88;;;19.70;55.50;;;;;;6348905;27;20043;-68
2023/01/02 14:19:26;;;;;;;1.92;0.80;;;19.70;55.50;;;;;;6348342;28;20031;-68
2023/01/02 14:22:27;;;;;;;1.20;0.82;;;19.70;55.50;;;;;;6343056;28;20028;-68
2023/01/02 14:25:30;;;;;;;1.20;0.65;;;19.70;55.50;;;;;;6321577;28;20108;-68
2023/01/02 14:28:36;;;;;;;4.05;1.05;;;19.70;55.50;;;;;;6323449;28;20028;-68
2023/01/02 14:31:38;;;;;;;3.47;1.13;;;19.70;55.50;;;;;;6322853;28;20048;-68
2023/01/02 14:34:47;;;;;;;2.05;0.80;;;19.70;55.50;;;;;;6341543;28;20023;-68
2023/01/02 14:37:51;;;;;;;1.95;0.70;;;19.70;55.50;;;;;;6348366;28;20024;-69
2023/01/02 14:40:52;;;;;;;1.50;0.90;;;19.70;55.50;;;;;;6329063;28;20032;-68
2023/01/02 14:43:53;;;;;;;1.63;0.77;;;19.70;55.50;;;;;;6332584;28;20051;-67
2023/01/02 14:46:55;;;;;;;1.50;0.90;;;19.70;55.60;;;;;;6322770;28;20024;-70
2023/01/02 14:50:00;;;;;;;5.57;1.15;;;19.60;55.30;;;;;;6322407;28;20112;-67
2023/01/02 14:53:24;;;;;;;8.30;1.38;;;19.60;55.20;;;;;;6313066;28;20017;-67
2023/01/02 14:56:34;;;;;;;4.40;1.60;;;19.60;55.00;;;;;;6322361;28;20411;-69
2023/01/02 14:59:41;;;;;;;6.20;1.25;;;19.60;54.90;;;;;;6332902;28;20035;-68
2023/01/02 15:02:46;;;;;;;2.17;1.05;;;19.60;54.30;;;;;;6335905;28;20114;-70
2023/01/02 15:05:55;;;;;;;4.18;1.48;;;19.60;54.80;;;;;;6324097;28;20024;-69
2023/01/02 15:09:06;;;;;;;6.82;1.45;;;19.60;54.70;;;;;;6329523;28;20176;-70
2023/01/02 15:15:49;;;;;;;4.15;1.58;;;19.60;54.70;;;;;;6322174;28;20028;-70
2023/01/02 15:18:58;;;;;;;5.27;1.70;;;19.70;55.20;;;;;;6314706;28;20038;-70
2023/01/02 15:22:08;;;;;;;3.30;1.25;;;19.70;54.90;;;;;;6325090;28;20266;-70
2023/01/02 15:25:13;;;;;;;3.20;1.38;;;19.70;55.10;;;;;;6337538;28;20016;-69
2023/01/02 15:28:29;;;;;;;3.97;1.50;;;19.70;55.10;;;;;;6322521;28;20028;-69
2023/01/02 15:31:30;;;;;;;3.85;1.20;;;19.70;54.70;;;;;;6319007;28;20016;-68
2023/01/02 15:34:32;;;;;;;6.35;1.85;;;19.80;54.70;;;;;;6321368;28;20020;-71
2023/01/02 15:37:33;;;;;;;3.22;1.10;;;19.80;54.60;;;;;;6303341;28;20602;-69
2023/01/02 15:40:34;;;;;;;4.78;1.65;;;19.80;54.90;;;;;;6317570;28;20115;-70
2023/01/02 15:46:58;;;;;;;5.35;1.20;;;19.70;55.00;;;;;;6312873;28;20478;-71
2023/01/02 15:50:11;;;;;;;2.65;1.17;;;19.70;55.10;;;;;;6337238;28;20099;-71
2023/01/02 15:53:33;;;;;;;7.88;1.70;;;19.70;55.00;;;;;;6309729;28;20020;-72
2023/01/02 15:56:36;;;;;;;4.50;1.10;;;19.80;55.00;;;;;;6343154;28;20046;-71
2023/01/02 15:59:37;;;;;;;3.95;1.58;;;19.80;55.10;;;;;;6332166;28;20020;-71
2023/01/02 16:02:43;;;;;;;6.93;2.05;;;19.80;55.10;;;;;;6329613;28;20089;-71
2023/01/02 16:05:55;;;;;;;4.25;1.65;;;19.80;55.00;;;;;;6336452;28;20090;-72
2023/01/02 16:08:59;;;;;;;3.50;1.42;;;19.80;55.00;;;;;;6345836;28;20024;-71
2023/01/02 16:12:02;;;;;;;2.97;1.30;;;19.70;55.00;;;;;;6311146;28;20115;-72
2023/01/02 16:15:04;;;;;;;3.22;1.27;;;19.70;55.10;;;;;;6320689;28;20027;-71
2023/01/02 16:18:04;;;;;;;3.05;1.30;;;19.70;55.10;;;;;;6342173;28;20022;-71
2023/01/02 16:21:06;;;;;;;1.55;1.20;;;19.70;55.10;;;;;;6344708;28;20019;-70
2023/01/02 16:24:10;;;;;;;3.47;1.40;;;19.70;55.20;;;;;;6319840;28;20694;-71